Kaleen Mc Allister — WDB3847 — position and weather

sailwx.info

Track history (hours):
 
Tides and Currents Weather Stations Pressure Air Temp Water Temp Dewpoint Dewpoint Depression Visibility Wind Speed Wind Dir Waves Ship Positions

Kaleen Mc Allister

Owner: MC ALLISTER TOWING & TRANSPORTATION INC, NEW YORK, NY. More information available from US FCC via Universal Licensing System and Coast Guard Vessel Documentation Center.

Last reported at 2017-Apr-23 02:54 UTC. Time now 2017-Apr-23 10:13 UTC.
Position N 39°16' W 076°35'.

Length 31 m; draft 4 m.

Type: Tug. MMSI: 366891960.

Date/timePositionNaut miles runAvg speedWind from/ knotsBaromVisibWave heightAir tempDewpointWater temp
2017-Apr-23 02:54N 39°16' W 076°35'0 0.0
2017-Apr-23 02:30N 39°16' W 076°35'0 0.0
2017-Apr-23 01:59N 39°16' W 076°35'0 0.0
2017-Apr-23 01:30N 39°16' W 076°35'0 0.0
2017-Apr-23 00:48N 39°16' W 076°35'0 0.0
2017-Apr-23 00:28N 39°16' W 076°35'0 0.0
2017-Apr-22 23:54N 39°16' W 076°35'1 2.4
2017-Apr-22 23:30N 39°15' W 076°36'0 0.7
2017-Apr-22 23:00N 39°16' W 076°35'1 1.2
2017-Apr-22 22:28N 39°16' W 076°35'0 0.0
2017-Apr-22 21:53N 39°16' W 076°35'0 0.0
2017-Apr-22 21:02N 39°16' W 076°35'0 0.0
2017-Apr-22 20:58N 39°16' W 076°35'0 0.0
2017-Apr-22 20:05N 39°16' W 076°35'0 0.0
2017-Apr-22 20:00N 39°16' W 076°35'0 0.0
2017-Apr-22 19:29N 39°16' W 076°35'0 0.0
2017-Apr-22 18:59N 39°16' W 076°35'0 0.0
2017-Apr-22 18:17N 39°16' W 076°35'0 0.0
2017-Apr-22 16:54N 39°16' W 076°35'0 0.0
2017-Apr-22 16:24N 39°16' W 076°35'0 0.0
2017-Apr-22 15:56N 39°16' W 076°35'0 0.0
2017-Apr-22 15:25N 39°16' W 076°35'0 0.0
2017-Apr-22 14:53N 39°16' W 076°35'0 0.0
2017-Apr-22 14:30N 39°16' W 076°35'0 0.0
2017-Apr-22 13:25N 39°16' W 076°35'0 0.0
2017-Apr-22 12:59N 39°16' W 076°35'0 0.0
2017-Apr-22 12:30N 39°16' W 076°35'0 0.0
2017-Apr-22 12:00N 39°16' W 076°35'0 0.0
2017-Apr-22 11:25N 39°16' W 076°35'0 0.0
2017-Apr-22 10:54N 39°16' W 076°35'0 0.0
2017-Apr-22 10:02N 39°16' W 076°35'0 3.8
2017-Apr-22 10:00N 39°16' W 076°35'1 1.4
2017-Apr-22 09:30N 39°17' W 076°36'1 1.0
2017-Apr-22 09:00N 39°16' W 076°35'2 3.7
2017-Apr-22 08:28N 39°15' W 076°33'0 0.1
2017-Apr-22 08:00N 39°15' W 076°33'2 3.4
2017-Apr-22 07:30N 39°16' W 076°35'0 0.0
2017-Apr-22 02:59N 39°16' W 076°35'0 0.0
2017-Apr-22 02:20N 39°16' W 076°35'0 0.0
2017-Apr-22 01:58N 39°16' W 076°35'0 0.0
2017-Apr-22 01:30N 39°16' W 076°35'0 0.0
2017-Apr-22 00:49N 39°16' W 076°35'0 0.0
2017-Apr-22 00:27N 39°16' W 076°35'0 0.0
2017-Apr-21 23:14N 39°16' W 076°35'0 0.0
2017-Apr-21 22:50N 39°16' W 076°35'0 0.0
2017-Apr-21 22:30N 39°16' W 076°35'0 0.0
2017-Apr-21 22:00N 39°16' W 076°35'0 0.0
2017-Apr-21 21:29N 39°16' W 076°35'0 0.0
2017-Apr-21 21:00N 39°16' W 076°35'0 0.0
2017-Apr-21 20:28N 39°16' W 076°35'0 0.0
2017-Apr-21 19:44N 39°16' W 076°35'0 0.0
2017-Apr-21 19:09N 39°16' W 076°35'0 0.0
2017-Apr-21 18:54N 39°16' W 076°35'0 0.0
2017-Apr-21 18:25N 39°16' W 076°35'0 0.0
2017-Apr-21 17:56N 39°16' W 076°35'0 0.0
2017-Apr-21 17:27N 39°16' W 076°35'0 0.0
2017-Apr-21 16:47N 39°16' W 076°35'0 0.0
2017-Apr-21 16:27N 39°16' W 076°35'0 0.0
2017-Apr-21 15:57N 39°16' W 076°35'0 0.0
2017-Apr-21 14:58N 39°16' W 076°35'0 0.0
2017-Apr-21 14:30N 39°16' W 076°35'0 0.0
2017-Apr-21 13:30N 39°16' W 076°35'0 0.0
2017-Apr-21 12:57N 39°16' W 076°35'0 0.0
2017-Apr-21 12:07N 39°16' W 076°35'0 0.0
2017-Apr-21 11:58N 39°16' W 076°35'0 0.0
2017-Apr-21 11:30N 39°16' W 076°35'0 0.3
2017-Apr-21 11:00N 39°16' W 076°35'3 5.6
2017-Apr-21 10:30N 39°13' W 076°35'1 1.1
2017-Apr-21 09:34N 39°13' W 076°33'1 4.7
2017-Apr-21 09:26N 39°13' W 076°33'1 1.5
2017-Apr-21 09:00N 39°13' W 076°32'1 2.1
2017-Apr-21 08:29N 39°14' W 076°32'0 0.0
2017-Apr-21 08:00N 39°14' W 076°32'0 0.0
2017-Apr-21 07:30N 39°14' W 076°32'0 0.3
2017-Apr-21 07:00N 39°14' W 076°32'1 2.3
2017-Apr-21 06:30N 39°13' W 076°32'4 7.5
2017-Apr-21 06:00N 39°16' W 076°35'0 0.1
2017-Apr-21 05:30N 39°16' W 076°35'0 0.0
2017-Apr-21 05:00N 39°16' W 076°35'0 0.0
2017-Apr-21 04:30N 39°16' W 076°35'0 0.0
2017-Apr-21 04:00N 39°16' W 076°35'0 0.0
2017-Apr-21 03:30N 39°16' W 076°35'0 0.0
2017-Apr-21 03:00N 39°16' W 076°35'0 0.0
2017-Apr-21 02:30N 39°16' W 076°35'0 0.0
2017-Apr-21 02:00N 39°16' W 076°35'0 0.0
2017-Apr-21 00:44N 39°16' W 076°35'0 0.0
2017-Apr-21 00:30N 39°16' W 076°35'0 0.0
2017-Apr-21 00:00N 39°16' W 076°35'0 0.0
2017-Apr-20 23:30N 39°16' W 076°35'0 0.0
2017-Apr-20 23:00N 39°16' W 076°35'0 0.0
2017-Apr-20 22:30N 39°16' W 076°35'0 0.0
2017-Apr-20 22:00N 39°16' W 076°35'0 0.0
2017-Apr-20 21:30N 39°16' W 076°35'0 0.0
2017-Apr-20 20:49N 39°16' W 076°35'0 0.0
2017-Apr-20 20:28N 39°16' W 076°35'0 0.0
2017-Apr-20 19:54N 39°16' W 076°35'0 0.0
2017-Apr-20 19:22N 39°16' W 076°35'0 0.0
2017-Apr-20 18:43N 39°16' W 076°35'0 0.0
2017-Apr-20 18:28N 39°16' W 076°35'0 0.0
2017-Apr-20 17:58N 39°16' W 076°35'0 0.0
2017-Apr-20 17:28N 39°16' W 076°35'0 0.0
2017-Apr-20 17:00N 39°16' W 076°35'0 0.0
2017-Apr-20 16:30N 39°16' W 076°35'1 2.1
2017-Apr-20 16:00N 39°15' W 076°35'1 1.8
2017-Apr-20 15:25N 39°16' W 076°35'0 0.0
2017-Apr-20 14:59N 39°16' W 076°35'0 0.0
2017-Apr-20 14:30N 39°16' W 076°35'0 0.0
2017-Apr-20 11:53N 39°16' W 076°35'0 0.0
2017-Apr-20 11:30N 39°16' W 076°35'0 0.0
2017-Apr-20 11:00N 39°16' W 076°35'0 0.0
2017-Apr-20 10:30N 39°16' W 076°35'0 0.0
2017-Apr-20 10:00N 39°16' W 076°35'3 5.0
2017-Apr-20 09:30N 39°15' W 076°32'0 0.8
2017-Apr-20 08:57N 39°14' W 076°32'1 1.2
2017-Apr-20 08:30N 39°14' W 076°33'3 5.9
2017-Apr-20 08:00N 39°16' W 076°35'0 0.0
2017-Apr-20 07:30N 39°16' W 076°35'0 0.0
2017-Apr-20 07:00N 39°16' W 076°35'0 0.0
2017-Apr-20 06:30N 39°16' W 076°35'0 0.0
2017-Apr-20 06:00N 39°16' W 076°35'0 0.0
2017-Apr-20 05:30N 39°16' W 076°35'0 0.0
2017-Apr-20 05:00N 39°16' W 076°35'0 0.0
2017-Apr-20 04:30N 39°16' W 076°35'0 0.0
2017-Apr-20 04:00N 39°16' W 076°35'0 0.0
2017-Apr-20 03:30N 39°16' W 076°35'0 0.0
2017-Apr-20 03:00N 39°16' W 076°35'0 0.0
2017-Apr-20 02:30N 39°16' W 076°35'0 0.0
2017-Apr-20 02:00N 39°16' W 076°35'0 0.0
2017-Apr-20 01:30N 39°16' W 076°35'0 0.0
2017-Apr-20 01:00N 39°16' W 076°35'1 2.1
2017-Apr-20 00:30N 39°15' W 076°35'0 0.5
2017-Apr-20 00:00N 39°15' W 076°35'1 2.0
2017-Apr-19 23:30N 39°15' W 076°34'1 2.0
2017-Apr-19 23:00N 39°15' W 076°32'2 5.0
2017-Apr-19 22:30N 39°16' W 076°35'0 0.2
2017-Apr-19 22:00N 39°16' W 076°35'0 0.0
2017-Apr-19 21:30N 39°16' W 076°35'0 0.0
2017-Apr-19 21:00N 39°16' W 076°35'0 0.0
2017-Apr-19 20:30N 39°16' W 076°35'0 0.0
2017-Apr-19 20:00N 39°16' W 076°35'0 0.0
2017-Apr-19 19:30N 39°16' W 076°35'0 0.0
2017-Apr-19 19:00N 39°16' W 076°35'0 0.0
2017-Apr-19 18:30N 39°16' W 076°35'0 0.0
2017-Apr-19 18:00N 39°16' W 076°35'0 0.0
2017-Apr-19 17:30N 39°16' W 076°35'0 0.0
2017-Apr-19 17:00N 39°16' W 076°35'0 0.0
2017-Apr-19 16:30N 39°16' W 076°35'0 0.0
2017-Apr-19 16:00N 39°16' W 076°35'0 0.0
2017-Apr-19 15:30N 39°16' W 076°35'0 0.0
2017-Apr-19 15:00N 39°16' W 076°35'0 0.0
2017-Apr-19 14:30N 39°16' W 076°35'0 0.0
2017-Apr-19 13:30N 39°16' W 076°35'0 0.0
2017-Apr-19 13:00N 39°16' W 076°35'0 0.0
2017-Apr-19 12:30N 39°16' W 076°35'0 0.0
2017-Apr-19 12:00N 39°16' W 076°35'0 0.0
2017-Apr-19 11:30N 39°16' W 076°35'0 0.0
2017-Apr-19 11:00N 39°16' W 076°35'0 0.0
2017-Apr-19 10:30N 39°16' W 076°35'0 0.0
2017-Apr-19 10:00N 39°16' W 076°35'0 0.0
2017-Apr-19 09:30N 39°16' W 076°35'0 0.0
2017-Apr-19 09:00N 39°16' W 076°35'0 0.0
2017-Apr-19 08:31N 39°16' W 076°35'0 0.0
2017-Apr-19 08:00N 39°16' W 076°35'0 0.0
2017-Apr-19 07:30N 39°16' W 076°35'0 0.0
2017-Apr-19 07:00N 39°16' W 076°35'0 0.0
2017-Apr-19 06:30N 39°16' W 076°35'0 0.0
2017-Apr-19 06:00N 39°16' W 076°35'0 0.0
2017-Apr-19 05:30N 39°16' W 076°35'0 0.0
2017-Apr-19 05:00N 39°16' W 076°35'0 0.0
2017-Apr-19 04:30N 39°16' W 076°35'0 0.0
2017-Apr-19 04:00N 39°16' W 076°35'0 0.0
2017-Apr-19 03:30N 39°16' W 076°35'0 0.0
2017-Apr-19 03:00N 39°16' W 076°35'0 0.0
2017-Apr-19 02:30N 39°16' W 076°35'0 0.0
2017-Apr-19 02:00N 39°16' W 076°35'0 0.0
2017-Apr-19 01:30N 39°16' W 076°35'0 0.0
2017-Apr-19 01:00N 39°16' W 076°35'0 0.3
2017-Apr-19 00:30N 39°16' W 076°35'1 1.5
2017-Apr-19 00:00N 39°16' W 076°34'0 0.2
2017-Apr-18 23:30N 39°16' W 076°34'0 0.0
2017-Apr-18 23:00N 39°16' W 076°34'0 0.9
2017-Apr-18 22:30N 39°15' W 076°34'0 0.3
2017-Apr-18 22:00N 39°15' W 076°34'1 2.1
2017-Apr-18 21:30N 39°15' W 076°33'2 4.1
2017-Apr-18 21:00N 39°16' W 076°35'0 0.0
2017-Apr-18 20:29N 39°16' W 076°35'0 0.0
2017-Apr-18 20:00N 39°16' W 076°35'0 0.0
2017-Apr-18 19:30N 39°16' W 076°35'0 0.0
2017-Apr-18 19:00N 39°16' W 076°35'1 1.7
2017-Apr-18 18:22N 39°15' W 076°35'1 3.0
2017-Apr-18 18:00N 39°16' W 076°35'0 0.0
2017-Apr-18 17:30N 39°16' W 076°35'0 0.0
2017-Apr-18 17:00N 39°16' W 076°35'0 0.0
2017-Apr-18 16:30N 39°16' W 076°35'0 0.0
2017-Apr-18 16:00N 39°16' W 076°35'0 0.0
2017-Apr-18 15:30N 39°16' W 076°35'0 0.0
2017-Apr-18 15:00N 39°16' W 076°35'0 0.0
2017-Apr-18 14:30N 39°16' W 076°35'0 0.0
2017-Apr-18 13:30N 39°16' W 076°35'0 0.0
2017-Apr-18 13:00N 39°16' W 076°35'0 0.0
2017-Apr-18 12:30N 39°16' W 076°35'0 0.0
2017-Apr-18 12:00N 39°16' W 076°35'0 0.0
2017-Apr-18 11:30N 39°16' W 076°35'0 0.0
2017-Apr-18 11:00N 39°16' W 076°35'0 0.0
2017-Apr-18 10:30N 39°16' W 076°35'0 0.0
2017-Apr-18 10:00N 39°16' W 076°35'0 0.0
2017-Apr-18 09:30N 39°16' W 076°35'0 0.0
2017-Apr-18 09:00N 39°16' W 076°35'2 5.0
2017-Apr-18 08:30N 39°15' W 076°32'1 2.5
2017-Apr-18 08:00N 39°13' W 076°32'1 2.9
2017-Apr-18 07:30N 39°15' W 076°33'2 4.1
2017-Apr-18 07:00N 39°16' W 076°35'0 0.0
2017-Apr-18 06:30N 39°16' W 076°35'0 0.0
2017-Apr-18 06:00N 39°16' W 076°35'0 0.0
2017-Apr-18 05:30N 39°16' W 076°35'0 0.0
2017-Apr-18 05:00N 39°16' W 076°35'0 0.0
2017-Apr-18 04:30N 39°16' W 076°35'0 0.0
2017-Apr-18 04:00N 39°16' W 076°35'0 0.0
2017-Apr-18 03:30N 39°16' W 076°35'0 0.0
2017-Apr-18 03:00N 39°16' W 076°35'0 0.0
2017-Apr-18 02:30N 39°16' W 076°35'0 0.0
2017-Apr-18 02:00N 39°16' W 076°35'0 0.0
2017-Apr-18 01:30N 39°16' W 076°35'0 0.0
2017-Apr-18 01:00N 39°16' W 076°35'0 0.0
2017-Apr-18 00:30N 39°16' W 076°35'0 0.0
2017-Apr-18 00:00N 39°16' W 076°35'0 0.0
2017-Apr-17 23:30N 39°16' W 076°35'0 0.0
2017-Apr-17 23:00N 39°16' W 076°35'0 0.0
2017-Apr-17 22:30N 39°16' W 076°35'0 0.0
2017-Apr-17 21:58N 39°16' W 076°35'0 0.0
2017-Apr-17 21:28N 39°16' W 076°35'0 0.0
2017-Apr-17 21:00N 39°16' W 076°35'0 0.0
2017-Apr-17 20:30N 39°16' W 076°35'0 0.0
2017-Apr-17 19:59N 39°16' W 076°35'0 0.0
2017-Apr-17 19:30N 39°16' W 076°35'0 0.0
2017-Apr-17 18:54N 39°16' W 076°35'0 0.0
2017-Apr-17 17:41N 39°16' W 076°35'0 0.0
2017-Apr-17 16:37N 39°16' W 076°35'0 0.0
2017-Apr-17 16:23N 39°16' W 076°35'0 0.0
2017-Apr-17 15:17N 39°16' W 076°35'0 0.0
2017-Apr-17 14:58N 39°16' W 076°35'0 0.0
2017-Apr-17 14:00N 39°16' W 076°35'0 0.0
2017-Apr-17 13:30N 39°16' W 076°35'0 0.0
2017-Apr-17 12:59N 39°16' W 076°35'0 0.0
2017-Apr-17 12:30N 39°16' W 076°35'0 0.0
2017-Apr-17 12:00N 39°16' W 076°35'0 0.0
2017-Apr-17 11:30N 39°16' W 076°35'0 0.0
2017-Apr-17 11:00N 39°16' W 076°35'0 0.0
2017-Apr-17 10:30N 39°16' W 076°35'0 0.0
2017-Apr-17 10:00N 39°16' W 076°35'0 0.0
2017-Apr-17 09:30N 39°16' W 076°35'0 0.0
2017-Apr-17 09:00N 39°16' W 076°35'0 0.0
2017-Apr-17 08:30N 39°16' W 076°35'0 0.0
2017-Apr-17 08:00N 39°16' W 076°35'0 0.0
2017-Apr-17 07:30N 39°16' W 076°35'0 0.0
2017-Apr-17 07:00N 39°16' W 076°35'0 0.0
2017-Apr-17 06:30N 39°16' W 076°35'0 0.0
2017-Apr-17 06:00N 39°16' W 076°35'0 0.0
2017-Apr-17 05:30N 39°16' W 076°35'0 0.0
2017-Apr-17 05:00N 39°16' W 076°35'0 0.0
2017-Apr-17 04:30N 39°16' W 076°35'0 0.0
2017-Apr-17 04:00N 39°16' W 076°35'0 0.0
2017-Apr-17 03:30N 39°16' W 076°35'0 0.0
2017-Apr-17 03:00N 39°16' W 076°35'0 0.0
2017-Apr-17 02:30N 39°16' W 076°35'0 0.0
2017-Apr-17 02:00N 39°16' W 076°35'0 0.0
2017-Apr-17 01:30N 39°16' W 076°35'0 0.0
2017-Apr-17 01:00N 39°16' W 076°35'0 0.0
2017-Apr-17 00:30N 39°16' W 076°35'0 0.0
2017-Apr-17 00:00N 39°16' W 076°35'0 0.0
2017-Apr-16 23:30N 39°16' W 076°35'0 0.0
2017-Apr-16 23:00N 39°16' W 076°35'0 0.0
2017-Apr-16 22:30N 39°16' W 076°35'0 0.0
2017-Apr-16 21:59N 39°16' W 076°35'0 0.0
2017-Apr-16 21:30N 39°16' W 076°35'0 0.0
2017-Apr-16 20:59N 39°16' W 076°35'0 0.0
2017-Apr-16 20:24N 39°16' W 076°35'0 0.0
2017-Apr-16 20:00N 39°16' W 076°35'0 0.0
2017-Apr-16 19:28N 39°16' W 076°35'0 0.0
2017-Apr-16 19:00N 39°16' W 076°35'0 0.0
2017-Apr-16 18:30N 39°16' W 076°35'0 0.0
2017-Apr-16 17:57N 39°16' W 076°35'0 0.0
2017-Apr-16 17:29N 39°16' W 076°35'0 0.0
2017-Apr-16 16:57N 39°16' W 076°35'0 0.0
2017-Apr-16 16:30N 39°16' W 076°35'0 0.0
2017-Apr-16 15:59N 39°16' W 076°35'0 0.0
2017-Apr-16 15:30N 39°16' W 076°35'0 0.0
2017-Apr-16 15:00N 39°16' W 076°35'0 0.0
2017-Apr-16 13:59N 39°16' W 076°35'0 0.0
2017-Apr-16 13:30N 39°16' W 076°35'0 0.0
2017-Apr-16 12:58N 39°16' W 076°35'0 0.0
2017-Apr-16 12:30N 39°16' W 076°35'0 0.0
2017-Apr-16 12:00N 39°16' W 076°35'0 0.0
2017-Apr-16 11:30N 39°16' W 076°35'0 0.0
2017-Apr-16 11:00N 39°16' W 076°35'0 0.0
2017-Apr-16 10:30N 39°16' W 076°35'0 0.0
2017-Apr-16 10:00N 39°16' W 076°35'0 0.0
2017-Apr-16 09:30N 39°16' W 076°35'0 0.0
2017-Apr-16 09:00N 39°16' W 076°35'0 0.0
2017-Apr-16 08:30N 39°16' W 076°35'0 0.0
2017-Apr-16 08:00N 39°16' W 076°35'0 0.0
2017-Apr-16 07:30N 39°16' W 076°35'0 0.0
2017-Apr-16 06:57N 39°16' W 076°35'0 0.0
2017-Apr-16 06:27N 39°16' W 076°35'0 0.0
2017-Apr-16 05:58N 39°16' W 076°35'0 0.0
2017-Apr-16 05:27N 39°16' W 076°35'1 2.2
2017-Apr-16 05:00N 39°15' W 076°34'1 2.2
2017-Apr-16 04:30N 39°14' W 076°34'1 1.5
2017-Apr-16 03:59N 39°15' W 076°34'1 1.7
2017-Apr-16 03:12N 39°16' W 076°35'0 0.0
2017-Apr-16 02:55N 39°16' W 076°35'0 0.0
2017-Apr-16 02:29N 39°16' W 076°35'0 0.0
2017-Apr-16 02:00N 39°16' W 076°35'0 0.0
2017-Apr-16 01:30N 39°16' W 076°35'0 0.0
2017-Apr-16 01:00N 39°16' W 076°35'0 0.0
2017-Apr-16 00:30N 39°16' W 076°35'0 0.0
2017-Apr-16 00:00N 39°16' W 076°35'1 2.2
2017-Apr-15 23:24N 39°15' W 076°34'0 1.1
2017-Apr-15 23:00N 39°15' W 076°33'1 2.7
2017-Apr-15 22:30N 39°16' W 076°35'0 0.6
2017-Apr-15 22:00N 39°16' W 076°35'0 0.0
2017-Apr-15 21:30N 39°16' W 076°35'0 0.0
2017-Apr-15 21:00N 39°16' W 076°35'0 0.0
2017-Apr-15 20:30N 39°16' W 076°35'0 0.0
2017-Apr-15 20:00N 39°16' W 076°35'0 0.0
2017-Apr-15 19:30N 39°16' W 076°35'0 0.0
2017-Apr-15 19:00N 39°16' W 076°35'0 0.0
2017-Apr-15 18:30N 39°16' W 076°35'0 0.0
2017-Apr-15 18:00N 39°16' W 076°35'3 5.0
2017-Apr-15 17:29N 39°14' W 076°33'2 3.7
2017-Apr-15 16:59N 39°13' W 076°35'2 4.3
2017-Apr-15 16:30N 39°14' W 076°33'2 4.6
2017-Apr-15 16:00N 39°16' W 076°35'0 0.0
2017-Apr-15 15:30N 39°16' W 076°35'0 0.0
2017-Apr-15 15:00N 39°16' W 076°35'0 0.0
2017-Apr-15 14:30N 39°16' W 076°35'0 0.0
2017-Apr-15 13:30N 39°16' W 076°35'0 0.0
2017-Apr-15 13:00N 39°16' W 076°35'0 0.0
2017-Apr-15 12:30N 39°16' W 076°35'0 0.0
2017-Apr-15 12:00N 39°16' W 076°35'0 0.0
2017-Apr-15 11:30N 39°16' W 076°35'0 0.0
2017-Apr-15 11:00N 39°16' W 076°35'0 0.0
2017-Apr-15 10:30N 39°16' W 076°35'0 0.0
2017-Apr-15 10:00N 39°16' W 076°35'2 3.3
2017-Apr-15 09:30N 39°15' W 076°33'1 1.5
2017-Apr-15 09:00N 39°15' W 076°32'0 0.0
2017-Apr-15 08:30N 39°15' W 076°32'0 0.0
2017-Apr-15 07:59N 39°15' W 076°32'0 0.9
2017-Apr-15 07:29N 39°15' W 076°32'0 0.8
2017-Apr-15 06:59N 39°15' W 076°32'2 3.6
2017-Apr-15 06:30N 39°13' W 076°32'4 7.3
2017-Apr-15 06:00N 39°16' W 076°35'0 0.3
2017-Apr-15 05:30N 39°16' W 076°35'0 0.0
2017-Apr-15 05:00N 39°16' W 076°35'0 0.0
2017-Apr-15 04:30N 39°16' W 076°35'0 0.0
2017-Apr-15 04:00N 39°16' W 076°35'0 0.0
2017-Apr-15 03:30N 39°16' W 076°35'0 0.0
2017-Apr-15 03:00N 39°16' W 076°35'0 0.0
2017-Apr-15 02:30N 39°16' W 076°35'0 0.0
2017-Apr-15 01:59N 39°16' W 076°35'0 0.0
2017-Apr-15 01:30N 39°16' W 076°35'0 0.0
2017-Apr-15 01:00N 39°16' W 076°35'0 0.0
2017-Apr-15 00:30N 39°16' W 076°35'0 0.0
2017-Apr-15 00:00N 39°16' W 076°35'0 0.0
2017-Apr-14 23:30N 39°16' W 076°35'0 0.0
2017-Apr-14 23:00N 39°16' W 076°35'0 0.0
2017-Apr-14 22:30N 39°16' W 076°35'2 3.1
2017-Apr-14 22:00N 39°15' W 076°33'4 8.3
2017-Apr-14 21:30N 39°12' W 076°30'71 9.8
2017-Apr-14 14:14N 38°01' W 076°19'810.1
2017-Apr-14 13:29N 38°05' W 076°28'5 0.7
2017-Apr-14 06:27N 38°08' W 076°32'3 3.5
2017-Apr-14 05:38N 38°06' W 076°30'1 9.6
2017-Apr-14 05:29N 38°04' W 076°29'5 9.6
2017-Apr-14 04:59N 38°02' W 076°23'5 9.1
2017-Apr-14 04:29N 38°01' W 076°18'4910.0
2017-Apr-13 23:33N 38°50' W 076°27'010.5
2017-Apr-13 23:30N 38°50' W 076°26'610.4
2017-Apr-13 22:58N 38°56' W 076°25'510.5
2017-Apr-13 22:30N 39°00' W 076°23'510.2
2017-Apr-13 22:00N 39°05' W 076°24'510.2
2017-Apr-13 21:30N 39°10' W 076°26'510.1
2017-Apr-13 21:00N 39°13' W 076°31'4 7.4
2017-Apr-13 20:25N 39°16' W 076°35'0 0.0
2017-Apr-13 14:52N 39°16' W 076°35'0 0.0
2017-Apr-13 14:25N 39°16' W 076°35'0 0.0
2017-Apr-13 13:26N 39°16' W 076°35'0 0.0
2017-Apr-13 12:48N 39°16' W 076°35'0 0.0
2017-Apr-13 12:01N 39°16' W 076°35'0 0.0
2017-Apr-13 12:00N 39°16' W 076°35'0 0.0
2017-Apr-13 08:18N 39°16' W 076°35'0 0.0
2017-Apr-13 07:58N 39°16' W 076°35'0 0.0
2017-Apr-13 07:30N 39°16' W 076°35'0 0.0
2017-Apr-13 06:59N 39°16' W 076°35'0 0.0
2017-Apr-13 06:30N 39°16' W 076°35'2 4.2
2017-Apr-13 06:00N 39°15' W 076°33'1 1.9
2017-Apr-13 05:30N 39°14' W 076°32'1 2.2
2017-Apr-13 05:00N 39°13' W 076°32'0 0.3
2017-Apr-13 04:30N 39°14' W 076°32'2 3.3
2017-Apr-13 04:00N 39°15' W 076°33'0 0.0
2017-Apr-13 03:30N 39°15' W 076°33'0 0.0
2017-Apr-13 02:59N 39°15' W 076°33'  
Track history (hours):
 
Tides and Currents Weather Stations Pressure Air Temp Water Temp Dewpoint Dewpoint Depression Visibility Wind Speed Wind Dir Waves Ship Positions

Kaleen Mc Allister

Owner: MC ALLISTER TOWING & TRANSPORTATION INC, NEW YORK, NY. More information available from US FCC via Universal Licensing System and Coast Guard Vessel Documentation Center.

Last reported at 2017-Apr-23 02:54 UTC. Time now 2017-Apr-23 10:13 UTC.
Position N 39°16' W 076°35'.

Length 31 m; draft 4 m.

Type: Tug. MMSI: 366891960.

Date/timePositionNaut miles runAvg speedWind from/ knotsBaromVisibWave heightAir tempDewpointWater temp
2017-Apr-23 02:54N 39°16' W 076°35'0 0.0
2017-Apr-23 02:30N 39°16' W 076°35'0 0.0
2017-Apr-23 01:59N 39°16' W 076°35'0 0.0
2017-Apr-23 01:30N 39°16' W 076°35'0 0.0
2017-Apr-23 00:48N 39°16' W 076°35'0 0.0
2017-Apr-23 00:28N 39°16' W 076°35'0 0.0
2017-Apr-22 23:54N 39°16' W 076°35'1 2.4
2017-Apr-22 23:30N 39°15' W 076°36'0 0.7
2017-Apr-22 23:00N 39°16' W 076°35'1 1.2
2017-Apr-22 22:28N 39°16' W 076°35'0 0.0
2017-Apr-22 21:53N 39°16' W 076°35'0 0.0
2017-Apr-22 21:02N 39°16' W 076°35'0 0.0
2017-Apr-22 20:58N 39°16' W 076°35'0 0.0
2017-Apr-22 20:05N 39°16' W 076°35'0 0.0
2017-Apr-22 20:00N 39°16' W 076°35'0 0.0
2017-Apr-22 19:29N 39°16' W 076°35'0 0.0
2017-Apr-22 18:59N 39°16' W 076°35'0 0.0
2017-Apr-22 18:17N 39°16' W 076°35'0 0.0
2017-Apr-22 16:54N 39°16' W 076°35'0 0.0
2017-Apr-22 16:24N 39°16' W 076°35'0 0.0
2017-Apr-22 15:56N 39°16' W 076°35'0 0.0
2017-Apr-22 15:25N 39°16' W 076°35'0 0.0
2017-Apr-22 14:53N 39°16' W 076°35'0 0.0
2017-Apr-22 14:30N 39°16' W 076°35'0 0.0
2017-Apr-22 13:25N 39°16' W 076°35'0 0.0
2017-Apr-22 12:59N 39°16' W 076°35'0 0.0
2017-Apr-22 12:30N 39°16' W 076°35'0 0.0
2017-Apr-22 12:00N 39°16' W 076°35'0 0.0
2017-Apr-22 11:25N 39°16' W 076°35'0 0.0
2017-Apr-22 10:54N 39°16' W 076°35'0 0.0
2017-Apr-22 10:02N 39°16' W 076°35'0 3.8
2017-Apr-22 10:00N 39°16' W 076°35'1 1.4
2017-Apr-22 09:30N 39°17' W 076°36'1 1.0
2017-Apr-22 09:00N 39°16' W 076°35'2 3.7
2017-Apr-22 08:28N 39°15' W 076°33'0 0.1
2017-Apr-22 08:00N 39°15' W 076°33'2 3.4
2017-Apr-22 07:30N 39°16' W 076°35'0 0.0
2017-Apr-22 02:59N 39°16' W 076°35'0 0.0
2017-Apr-22 02:20N 39°16' W 076°35'0 0.0
2017-Apr-22 01:58N 39°16' W 076°35'0 0.0
2017-Apr-22 01:30N 39°16' W 076°35'0 0.0
2017-Apr-22 00:49N 39°16' W 076°35'0 0.0
2017-Apr-22 00:27N 39°16' W 076°35'0 0.0
2017-Apr-21 23:14N 39°16' W 076°35'0 0.0
2017-Apr-21 22:50N 39°16' W 076°35'0 0.0
2017-Apr-21 22:30N 39°16' W 076°35'0 0.0
2017-Apr-21 22:00N 39°16' W 076°35'0 0.0
2017-Apr-21 21:29N 39°16' W 076°35'0 0.0
2017-Apr-21 21:00N 39°16' W 076°35'0 0.0
2017-Apr-21 20:28N 39°16' W 076°35'0 0.0
2017-Apr-21 19:44N 39°16' W 076°35'0 0.0
2017-Apr-21 19:09N 39°16' W 076°35'0 0.0
2017-Apr-21 18:54N 39°16' W 076°35'0 0.0
2017-Apr-21 18:25N 39°16' W 076°35'0 0.0
2017-Apr-21 17:56N 39°16' W 076°35'0 0.0
2017-Apr-21 17:27N 39°16' W 076°35'0 0.0
2017-Apr-21 16:47N 39°16' W 076°35'0 0.0
2017-Apr-21 16:27N 39°16' W 076°35'0 0.0
2017-Apr-21 15:57N 39°16' W 076°35'0 0.0
2017-Apr-21 14:58N 39°16' W 076°35'0 0.0
2017-Apr-21 14:30N 39°16' W 076°35'0 0.0
2017-Apr-21 13:30N 39°16' W 076°35'0 0.0
2017-Apr-21 12:57N 39°16' W 076°35'0 0.0
2017-Apr-21 12:07N 39°16' W 076°35'0 0.0
2017-Apr-21 11:58N 39°16' W 076°35'0 0.0
2017-Apr-21 11:30N 39°16' W 076°35'0 0.3
2017-Apr-21 11:00N 39°16' W 076°35'3 5.6
2017-Apr-21 10:30N 39°13' W 076°35'1 1.1
2017-Apr-21 09:34N 39°13' W 076°33'1 4.7
2017-Apr-21 09:26N 39°13' W 076°33'1 1.5
2017-Apr-21 09:00N 39°13' W 076°32'1 2.1
2017-Apr-21 08:29N 39°14' W 076°32'0 0.0
2017-Apr-21 08:00N 39°14' W 076°32'0 0.0
2017-Apr-21 07:30N 39°14' W 076°32'0 0.3
2017-Apr-21 07:00N 39°14' W 076°32'1 2.3
2017-Apr-21 06:30N 39°13' W 076°32'4 7.5
2017-Apr-21 06:00N 39°16' W 076°35'0 0.1
2017-Apr-21 05:30N 39°16' W 076°35'0 0.0
2017-Apr-21 05:00N 39°16' W 076°35'0 0.0
2017-Apr-21 04:30N 39°16' W 076°35'0 0.0
2017-Apr-21 04:00N 39°16' W 076°35'0 0.0
2017-Apr-21 03:30N 39°16' W 076°35'0 0.0
2017-Apr-21 03:00N 39°16' W 076°35'0 0.0
2017-Apr-21 02:30N 39°16' W 076°35'0 0.0
2017-Apr-21 02:00N 39°16' W 076°35'0 0.0
2017-Apr-21 00:44N 39°16' W 076°35'0 0.0
2017-Apr-21 00:30N 39°16' W 076°35'0 0.0
2017-Apr-21 00:00N 39°16' W 076°35'0 0.0
2017-Apr-20 23:30N 39°16' W 076°35'0 0.0
2017-Apr-20 23:00N 39°16' W 076°35'0 0.0
2017-Apr-20 22:30N 39°16' W 076°35'0 0.0
2017-Apr-20 22:00N 39°16' W 076°35'0 0.0
2017-Apr-20 21:30N 39°16' W 076°35'0 0.0
2017-Apr-20 20:49N 39°16' W 076°35'0 0.0
2017-Apr-20 20:28N 39°16' W 076°35'0 0.0
2017-Apr-20 19:54N 39°16' W 076°35'0 0.0
2017-Apr-20 19:22N 39°16' W 076°35'0 0.0
2017-Apr-20 18:43N 39°16' W 076°35'0 0.0
2017-Apr-20 18:28N 39°16' W 076°35'0 0.0
2017-Apr-20 17:58N 39°16' W 076°35'0 0.0
2017-Apr-20 17:28N 39°16' W 076°35'0 0.0
2017-Apr-20 17:00N 39°16' W 076°35'0 0.0
2017-Apr-20 16:30N 39°16' W 076°35'1 2.1
2017-Apr-20 16:00N 39°15' W 076°35'1 1.8
2017-Apr-20 15:25N 39°16' W 076°35'0 0.0
2017-Apr-20 14:59N 39°16' W 076°35'0 0.0
2017-Apr-20 14:30N 39°16' W 076°35'0 0.0
2017-Apr-20 11:53N 39°16' W 076°35'0 0.0
2017-Apr-20 11:30N 39°16' W 076°35'0 0.0
2017-Apr-20 11:00N 39°16' W 076°35'0 0.0
2017-Apr-20 10:30N 39°16' W 076°35'0 0.0
2017-Apr-20 10:00N 39°16' W 076°35'3 5.0
2017-Apr-20 09:30N 39°15' W 076°32'0 0.8
2017-Apr-20 08:57N 39°14' W 076°32'1 1.2
2017-Apr-20 08:30N 39°14' W 076°33'3 5.9
2017-Apr-20 08:00N 39°16' W 076°35'0 0.0
2017-Apr-20 07:30N 39°16' W 076°35'0 0.0
2017-Apr-20 07:00N 39°16' W 076°35'0 0.0
2017-Apr-20 06:30N 39°16' W 076°35'0 0.0
2017-Apr-20 06:00N 39°16' W 076°35'0 0.0
2017-Apr-20 05:30N 39°16' W 076°35'0 0.0
2017-Apr-20 05:00N 39°16' W 076°35'0 0.0
2017-Apr-20 04:30N 39°16' W 076°35'0 0.0
2017-Apr-20 04:00N 39°16' W 076°35'0 0.0
2017-Apr-20 03:30N 39°16' W 076°35'0 0.0
2017-Apr-20 03:00N 39°16' W 076°35'0 0.0
2017-Apr-20 02:30N 39°16' W 076°35'0 0.0
2017-Apr-20 02:00N 39°16' W 076°35'0 0.0
2017-Apr-20 01:30N 39°16' W 076°35'0 0.0
2017-Apr-20 01:00N 39°16' W 076°35'1 2.1
2017-Apr-20 00:30N 39°15' W 076°35'0 0.5
2017-Apr-20 00:00N 39°15' W 076°35'1 2.0
2017-Apr-19 23:30N 39°15' W 076°34'1 2.0
2017-Apr-19 23:00N 39°15' W 076°32'2 5.0
2017-Apr-19 22:30N 39°16' W 076°35'0 0.2
2017-Apr-19 22:00N 39°16' W 076°35'0 0.0
2017-Apr-19 21:30N 39°16' W 076°35'0 0.0
2017-Apr-19 21:00N 39°16' W 076°35'0 0.0
2017-Apr-19 20:30N 39°16' W 076°35'0 0.0
2017-Apr-19 20:00N 39°16' W 076°35'0 0.0
2017-Apr-19 19:30N 39°16' W 076°35'0 0.0
2017-Apr-19 19:00N 39°16' W 076°35'0 0.0
2017-Apr-19 18:30N 39°16' W 076°35'0 0.0
2017-Apr-19 18:00N 39°16' W 076°35'0 0.0
2017-Apr-19 17:30N 39°16' W 076°35'0 0.0
2017-Apr-19 17:00N 39°16' W 076°35'0 0.0
2017-Apr-19 16:30N 39°16' W 076°35'0 0.0
2017-Apr-19 16:00N 39°16' W 076°35'0 0.0
2017-Apr-19 15:30N 39°16' W 076°35'0 0.0
2017-Apr-19 15:00N 39°16' W 076°35'0 0.0
2017-Apr-19 14:30N 39°16' W 076°35'0 0.0
2017-Apr-19 13:30N 39°16' W 076°35'0 0.0
2017-Apr-19 13:00N 39°16' W 076°35'0 0.0
2017-Apr-19 12:30N 39°16' W 076°35'0 0.0
2017-Apr-19 12:00N 39°16' W 076°35'0 0.0
2017-Apr-19 11:30N 39°16' W 076°35'0 0.0
2017-Apr-19 11:00N 39°16' W 076°35'0 0.0
2017-Apr-19 10:30N 39°16' W 076°35'0 0.0
2017-Apr-19 10:00N 39°16' W 076°35'0 0.0
2017-Apr-19 09:30N 39°16' W 076°35'0 0.0
2017-Apr-19 09:00N 39°16' W 076°35'0 0.0
2017-Apr-19 08:31N 39°16' W 076°35'0 0.0
2017-Apr-19 08:00N 39°16' W 076°35'0 0.0
2017-Apr-19 07:30N 39°16' W 076°35'0 0.0
2017-Apr-19 07:00N 39°16' W 076°35'0 0.0
2017-Apr-19 06:30N 39°16' W 076°35'0 0.0
2017-Apr-19 06:00N 39°16' W 076°35'0 0.0
2017-Apr-19 05:30N 39°16' W 076°35'0 0.0
2017-Apr-19 05:00N 39°16' W 076°35'0 0.0
2017-Apr-19 04:30N 39°16' W 076°35'0 0.0
2017-Apr-19 04:00N 39°16' W 076°35'0 0.0
2017-Apr-19 03:30N 39°16' W 076°35'0 0.0
2017-Apr-19 03:00N 39°16' W 076°35'0 0.0
2017-Apr-19 02:30N 39°16' W 076°35'0 0.0
2017-Apr-19 02:00N 39°16' W 076°35'0 0.0
2017-Apr-19 01:30N 39°16' W 076°35'0 0.0
2017-Apr-19 01:00N 39°16' W 076°35'0 0.3
2017-Apr-19 00:30N 39°16' W 076°35'1 1.5
2017-Apr-19 00:00N 39°16' W 076°34'0 0.2
2017-Apr-18 23:30N 39°16' W 076°34'0 0.0
2017-Apr-18 23:00N 39°16' W 076°34'0 0.9
2017-Apr-18 22:30N 39°15' W 076°34'0 0.3
2017-Apr-18 22:00N 39°15' W 076°34'1 2.1
2017-Apr-18 21:30N 39°15' W 076°33'2 4.1
2017-Apr-18 21:00N 39°16' W 076°35'0 0.0
2017-Apr-18 20:29N 39°16' W 076°35'0 0.0
2017-Apr-18 20:00N 39°16' W 076°35'0 0.0
2017-Apr-18 19:30N 39°16' W 076°35'0 0.0
2017-Apr-18 19:00N 39°16' W 076°35'1 1.7
2017-Apr-18 18:22N 39°15' W 076°35'1 3.0
2017-Apr-18 18:00N 39°16' W 076°35'0 0.0
2017-Apr-18 17:30N 39°16' W 076°35'0 0.0
2017-Apr-18 17:00N 39°16' W 076°35'0 0.0
2017-Apr-18 16:30N 39°16' W 076°35'0 0.0
2017-Apr-18 16:00N 39°16' W 076°35'0 0.0
2017-Apr-18 15:30N 39°16' W 076°35'0 0.0
2017-Apr-18 15:00N 39°16' W 076°35'0 0.0
2017-Apr-18 14:30N 39°16' W 076°35'0 0.0
2017-Apr-18 13:30N 39°16' W 076°35'0 0.0
2017-Apr-18 13:00N 39°16' W 076°35'0 0.0
2017-Apr-18 12:30N 39°16' W 076°35'0 0.0
2017-Apr-18 12:00N 39°16' W 076°35'0 0.0
2017-Apr-18 11:30N 39°16' W 076°35'0 0.0
2017-Apr-18 11:00N 39°16' W 076°35'0 0.0
2017-Apr-18 10:30N 39°16' W 076°35'0 0.0
2017-Apr-18 10:00N 39°16' W 076°35'0 0.0
2017-Apr-18 09:30N 39°16' W 076°35'0 0.0
2017-Apr-18 09:00N 39°16' W 076°35'2 5.0
2017-Apr-18 08:30N 39°15' W 076°32'1 2.5
2017-Apr-18 08:00N 39°13' W 076°32'1 2.9
2017-Apr-18 07:30N 39°15' W 076°33'2 4.1
2017-Apr-18 07:00N 39°16' W 076°35'0 0.0
2017-Apr-18 06:30N 39°16' W 076°35'0 0.0
2017-Apr-18 06:00N 39°16' W 076°35'0 0.0
2017-Apr-18 05:30N 39°16' W 076°35'0 0.0
2017-Apr-18 05:00N 39°16' W 076°35'0 0.0
2017-Apr-18 04:30N 39°16' W 076°35'0 0.0
2017-Apr-18 04:00N 39°16' W 076°35'0 0.0
2017-Apr-18 03:30N 39°16' W 076°35'0 0.0
2017-Apr-18 03:00N 39°16' W 076°35'0 0.0
2017-Apr-18 02:30N 39°16' W 076°35'0 0.0
2017-Apr-18 02:00N 39°16' W 076°35'0 0.0
2017-Apr-18 01:30N 39°16' W 076°35'0 0.0
2017-Apr-18 01:00N 39°16' W 076°35'0 0.0
2017-Apr-18 00:30N 39°16' W 076°35'0 0.0
2017-Apr-18 00:00N 39°16' W 076°35'0 0.0
2017-Apr-17 23:30N 39°16' W 076°35'0 0.0
2017-Apr-17 23:00N 39°16' W 076°35'0 0.0
2017-Apr-17 22:30N 39°16' W 076°35'0 0.0
2017-Apr-17 21:58N 39°16' W 076°35'0 0.0
2017-Apr-17 21:28N 39°16' W 076°35'0 0.0
2017-Apr-17 21:00N 39°16' W 076°35'0 0.0
2017-Apr-17 20:30N 39°16' W 076°35'0 0.0
2017-Apr-17 19:59N 39°16' W 076°35'0 0.0
2017-Apr-17 19:30N 39°16' W 076°35'0 0.0
2017-Apr-17 18:54N 39°16' W 076°35'0 0.0
2017-Apr-17 17:41N 39°16' W 076°35'0 0.0
2017-Apr-17 16:37N 39°16' W 076°35'0 0.0
2017-Apr-17 16:23N 39°16' W 076°35'0 0.0
2017-Apr-17 15:17N 39°16' W 076°35'0 0.0
2017-Apr-17 14:58N 39°16' W 076°35'0 0.0
2017-Apr-17 14:00N 39°16' W 076°35'0 0.0
2017-Apr-17 13:30N 39°16' W 076°35'0 0.0
2017-Apr-17 12:59N 39°16' W 076°35'0 0.0
2017-Apr-17 12:30N 39°16' W 076°35'0 0.0
2017-Apr-17 12:00N 39°16' W 076°35'0 0.0
2017-Apr-17 11:30N 39°16' W 076°35'0 0.0
2017-Apr-17 11:00N 39°16' W 076°35'0 0.0
2017-Apr-17 10:30N 39°16' W 076°35'0 0.0
2017-Apr-17 10:00N 39°16' W 076°35'0 0.0
2017-Apr-17 09:30N 39°16' W 076°35'0 0.0
2017-Apr-17 09:00N 39°16' W 076°35'0 0.0
2017-Apr-17 08:30N 39°16' W 076°35'0 0.0
2017-Apr-17 08:00N 39°16' W 076°35'0 0.0
2017-Apr-17 07:30N 39°16' W 076°35'0 0.0
2017-Apr-17 07:00N 39°16' W 076°35'0 0.0
2017-Apr-17 06:30N 39°16' W 076°35'0 0.0
2017-Apr-17 06:00N 39°16' W 076°35'0 0.0
2017-Apr-17 05:30N 39°16' W 076°35'0 0.0
2017-Apr-17 05:00N 39°16' W 076°35'0 0.0
2017-Apr-17 04:30N 39°16' W 076°35'0 0.0
2017-Apr-17 04:00N 39°16' W 076°35'0 0.0
2017-Apr-17 03:30N 39°16' W 076°35'0 0.0
2017-Apr-17 03:00N 39°16' W 076°35'0 0.0
2017-Apr-17 02:30N 39°16' W 076°35'0 0.0
2017-Apr-17 02:00N 39°16' W 076°35'0 0.0
2017-Apr-17 01:30N 39°16' W 076°35'0 0.0
2017-Apr-17 01:00N 39°16' W 076°35'0 0.0
2017-Apr-17 00:30N 39°16' W 076°35'0 0.0
2017-Apr-17 00:00N 39°16' W 076°35'0 0.0
2017-Apr-16 23:30N 39°16' W 076°35'0 0.0
2017-Apr-16 23:00N 39°16' W 076°35'0 0.0
2017-Apr-16 22:30N 39°16' W 076°35'0 0.0
2017-Apr-16 21:59N 39°16' W 076°35'0 0.0
2017-Apr-16 21:30N 39°16' W 076°35'0 0.0
2017-Apr-16 20:59N 39°16' W 076°35'0 0.0
2017-Apr-16 20:24N 39°16' W 076°35'0 0.0
2017-Apr-16 20:00N 39°16' W 076°35'0 0.0
2017-Apr-16 19:28N 39°16' W 076°35'0 0.0
2017-Apr-16 19:00N 39°16' W 076°35'0 0.0
2017-Apr-16 18:30N 39°16' W 076°35'0 0.0
2017-Apr-16 17:57N 39°16' W 076°35'0 0.0
2017-Apr-16 17:29N 39°16' W 076°35'0 0.0
2017-Apr-16 16:57N 39°16' W 076°35'0 0.0
2017-Apr-16 16:30N 39°16' W 076°35'0 0.0
2017-Apr-16 15:59N 39°16' W 076°35'0 0.0
2017-Apr-16 15:30N 39°16' W 076°35'0 0.0
2017-Apr-16 15:00N 39°16' W 076°35'0 0.0
2017-Apr-16 13:59N 39°16' W 076°35'0 0.0
2017-Apr-16 13:30N 39°16' W 076°35'0 0.0
2017-Apr-16 12:58N 39°16' W 076°35'0 0.0
2017-Apr-16 12:30N 39°16' W 076°35'0 0.0
2017-Apr-16 12:00N 39°16' W 076°35'0 0.0
2017-Apr-16 11:30N 39°16' W 076°35'0 0.0
2017-Apr-16 11:00N 39°16' W 076°35'0 0.0
2017-Apr-16 10:30N 39°16' W 076°35'0 0.0
2017-Apr-16 10:00N 39°16' W 076°35'0 0.0
2017-Apr-16 09:30N 39°16' W 076°35'0 0.0
2017-Apr-16 09:00N 39°16' W 076°35'0 0.0
2017-Apr-16 08:30N 39°16' W 076°35'0 0.0
2017-Apr-16 08:00N 39°16' W 076°35'0 0.0
2017-Apr-16 07:30N 39°16' W 076°35'0 0.0
2017-Apr-16 06:57N 39°16' W 076°35'0 0.0
2017-Apr-16 06:27N 39°16' W 076°35'0 0.0
2017-Apr-16 05:58N 39°16' W 076°35'0 0.0
2017-Apr-16 05:27N 39°16' W 076°35'1 2.2
2017-Apr-16 05:00N 39°15' W 076°34'1 2.2
2017-Apr-16 04:30N 39°14' W 076°34'1 1.5
2017-Apr-16 03:59N 39°15' W 076°34'1 1.7
2017-Apr-16 03:12N 39°16' W 076°35'0 0.0
2017-Apr-16 02:55N 39°16' W 076°35'0 0.0
2017-Apr-16 02:29N 39°16' W 076°35'0 0.0
2017-Apr-16 02:00N 39°16' W 076°35'0 0.0
2017-Apr-16 01:30N 39°16' W 076°35'0 0.0
2017-Apr-16 01:00N 39°16' W 076°35'0 0.0
2017-Apr-16 00:30N 39°16' W 076°35'0 0.0
2017-Apr-16 00:00N 39°16' W 076°35'1 2.2
2017-Apr-15 23:24N 39°15' W 076°34'0 1.1
2017-Apr-15 23:00N 39°15' W 076°33'1 2.7
2017-Apr-15 22:30N 39°16' W 076°35'0 0.6
2017-Apr-15 22:00N 39°16' W 076°35'0 0.0
2017-Apr-15 21:30N 39°16' W 076°35'0 0.0
2017-Apr-15 21:00N 39°16' W 076°35'0 0.0
2017-Apr-15 20:30N 39°16' W 076°35'0 0.0
2017-Apr-15 20:00N 39°16' W 076°35'0 0.0
2017-Apr-15 19:30N 39°16' W 076°35'0 0.0
2017-Apr-15 19:00N 39°16' W 076°35'0 0.0
2017-Apr-15 18:30N 39°16' W 076°35'0 0.0
2017-Apr-15 18:00N 39°16' W 076°35'3 5.0
2017-Apr-15 17:29N 39°14' W 076°33'2 3.7
2017-Apr-15 16:59N 39°13' W 076°35'2 4.3
2017-Apr-15 16:30N 39°14' W 076°33'2 4.6
2017-Apr-15 16:00N 39°16' W 076°35'0 0.0
2017-Apr-15 15:30N 39°16' W 076°35'0 0.0
2017-Apr-15 15:00N 39°16' W 076°35'0 0.0
2017-Apr-15 14:30N 39°16' W 076°35'0 0.0
2017-Apr-15 13:30N 39°16' W 076°35'0 0.0
2017-Apr-15 13:00N 39°16' W 076°35'0 0.0
2017-Apr-15 12:30N 39°16' W 076°35'0 0.0
2017-Apr-15 12:00N 39°16' W 076°35'0 0.0
2017-Apr-15 11:30N 39°16' W 076°35'0 0.0
2017-Apr-15 11:00N 39°16' W 076°35'0 0.0
2017-Apr-15 10:30N 39°16' W 076°35'0 0.0
2017-Apr-15 10:00N 39°16' W 076°35'2 3.3
2017-Apr-15 09:30N 39°15' W 076°33'1 1.5
2017-Apr-15 09:00N 39°15' W 076°32'0 0.0
2017-Apr-15 08:30N 39°15' W 076°32'0 0.0
2017-Apr-15 07:59N 39°15' W 076°32'0 0.9
2017-Apr-15 07:29N 39°15' W 076°32'0 0.8
2017-Apr-15 06:59N 39°15' W 076°32'2 3.6
2017-Apr-15 06:30N 39°13' W 076°32'4 7.3
2017-Apr-15 06:00N 39°16' W 076°35'0 0.3
2017-Apr-15 05:30N 39°16' W 076°35'0 0.0
2017-Apr-15 05:00N 39°16' W 076°35'0 0.0
2017-Apr-15 04:30N 39°16' W 076°35'0 0.0
2017-Apr-15 04:00N 39°16' W 076°35'0 0.0
2017-Apr-15 03:30N 39°16' W 076°35'0 0.0
2017-Apr-15 03:00N 39°16' W 076°35'0 0.0
2017-Apr-15 02:30N 39°16' W 076°35'0 0.0
2017-Apr-15 01:59N 39°16' W 076°35'0 0.0
2017-Apr-15 01:30N 39°16' W 076°35'0 0.0
2017-Apr-15 01:00N 39°16' W 076°35'0 0.0
2017-Apr-15 00:30N 39°16' W 076°35'0 0.0
2017-Apr-15 00:00N 39°16' W 076°35'0 0.0
2017-Apr-14 23:30N 39°16' W 076°35'0 0.0
2017-Apr-14 23:00N 39°16' W 076°35'0 0.0
2017-Apr-14 22:30N 39°16' W 076°35'2 3.1
2017-Apr-14 22:00N 39°15' W 076°33'4 8.3
2017-Apr-14 21:30N 39°12' W 076°30'71 9.8
2017-Apr-14 14:14N 38°01' W 076°19'810.1
2017-Apr-14 13:29N 38°05' W 076°28'5 0.7
2017-Apr-14 06:27N 38°08' W 076°32'3 3.5
2017-Apr-14 05:38N 38°06' W 076°30'1 9.6
2017-Apr-14 05:29N 38°04' W 076°29'5 9.6
2017-Apr-14 04:59N 38°02' W 076°23'5 9.1
2017-Apr-14 04:29N 38°01' W 076°18'4910.0
2017-Apr-13 23:33N 38°50' W 076°27'010.5
2017-Apr-13 23:30N 38°50' W 076°26'610.4
2017-Apr-13 22:58N 38°56' W 076°25'510.5
2017-Apr-13 22:30N 39°00' W 076°23'510.2
2017-Apr-13 22:00N 39°05' W 076°24'510.2
2017-Apr-13 21:30N 39°10' W 076°26'510.1
2017-Apr-13 21:00N 39°13' W 076°31'4 7.4
2017-Apr-13 20:25N 39°16' W 076°35'0 0.0
2017-Apr-13 14:52N 39°16' W 076°35'0 0.0
2017-Apr-13 14:25N 39°16' W 076°35'0 0.0
2017-Apr-13 13:26N 39°16' W 076°35'0 0.0
2017-Apr-13 12:48N 39°16' W 076°35'0 0.0
2017-Apr-13 12:01N 39°16' W 076°35'0 0.0
2017-Apr-13 12:00N 39°16' W 076°35'0 0.0
2017-Apr-13 08:18N 39°16' W 076°35'0 0.0
2017-Apr-13 07:58N 39°16' W 076°35'0 0.0
2017-Apr-13 07:30N 39°16' W 076°35'0 0.0
2017-Apr-13 06:59N 39°16' W 076°35'0 0.0
2017-Apr-13 06:30N 39°16' W 076°35'2 4.2
2017-Apr-13 06:00N 39°15' W 076°33'1 1.9
2017-Apr-13 05:30N 39°14' W 076°32'1 2.2
2017-Apr-13 05:00N 39°13' W 076°32'0 0.3
2017-Apr-13 04:30N 39°14' W 076°32'2 3.3
2017-Apr-13 04:00N 39°15' W 076°33'0 0.0
2017-Apr-13 03:30N 39°15' W 076°33'0 0.0
2017-Apr-13 02:59N 39°15' W 076°33'  

Dump ship's entire track history